• Join FlightAware (Why Join?)
  • Login
  • US Flag 
01:54AM EST


 

Airport Tracker/Info


-or-


 

Live Flight TrackerFlight Track Log ✈ ASQ4179 ✈ 27-Jun-2013 ✈ KRDU - KIAH

Flight Track Log - Related Links

Times and Time Zones

All times are in EDT time to prevent confusion due to time zone crossing. See the ASQ4179 flight status page for this flight to view local times or setup timezone preferences in your user account.

Time Position Orientation Groundspeed Altitude Reporting Facility
EDT Latitude Longitude Course Direction KTS MPH feet Rate Location/Type
06:16AM 35.8644 -78.8164 262° West 165 190 1,300  Level Washington Center
06:17AM 35.8361 -78.8614 232° Southwest 189 217 3,800 2,100 Climbing Washington Center
06:18AM 35.8364 -78.9228 270° West 184 212 6,000 1,980 Climbing Washington Center
06:19AM 35.8435 -79.1815 263° West  Level FlightAware Approximate
06:19AM 35.8386 -78.9972 272° West 197 227 7,800  Level Washington Center
06:20AM 35.8318 -79.3142 262° West  Level FlightAware Approximate
06:20AM 35.8358 -79.0842 268° West 230 265 9,800  Level Washington Center
06:21AM 35.8171 -79.4465 262° West  Level FlightAware Approximate
06:21AM 35.8372 -79.1792 271° West 261 300 10,900  Level Washington Center
06:22AM 35.8358 -79.2994 269° West 310 357 12,200 1,200 Climbing Washington Center
06:23AM 35.8283 -79.4042 265° West 335 386 13,300 1,260 Climbing Washington Center
06:25AM 35.7875 -79.6997 260° West 364 419 16,500 1,320 Climbing Atlanta Center
06:26AM 35.7581 -79.8139 252° West 359 413 17,800 1,380 Climbing Atlanta Center
06:27AM 35.7183 -79.9311 247° West 364 419 19,300 1,380 Climbing Atlanta Center
06:28AM 35.6825 -80.0453 249° West 369 425 20,600 1,380 Climbing Atlanta Center
06:29AM 35.6425 -80.1622 247° West 380 437 22,100 1,380 Climbing Atlanta Center
06:30AM 35.6042 -80.2764 248° West 369 425 23,400 1,200 Climbing Atlanta Center
06:31AM 35.5658 -80.3881 247° West 364 419 24,600 1,080 Climbing Atlanta Center
06:32AM 35.5314 -80.4892 247° West 364 419 25,600 1,080 Climbing Atlanta Center
06:33AM 35.4950 -80.6028 249° West 364 419 26,800 1,140 Climbing Atlanta Center
06:34AM 35.4544 -80.7192 247° West 364 419 27,900 1,140 Climbing Atlanta Center
06:35AM 35.4133 -80.8306 246° West 364 419 29,100 1,200 Climbing Atlanta Center
06:36AM 35.3767 -80.9464 249° West 364 419 30,300 1,200 Climbing Atlanta Center
06:37AM 35.3317 -81.0678 246° West 364 419 31,500 1,200 Climbing Atlanta Center
06:38AM 35.3053 -81.1858 255° West 364 419 32,700 1,080 Climbing Atlanta Center
06:39AM 35.2956 -81.3083 264° West 358 412 33,700 900 Climbing Atlanta Center
06:40AM 35.2897 -81.4256 267° West 358 412 34,600 840 Climbing Atlanta Center
06:41AM 35.2800 -81.5481 264° West 353 406 35,400 600 Climbing Atlanta Center
06:42AM 35.2736 -81.6525 266° West 353 406 35,900 300 Climbing Atlanta Center
06:43AM 35.2633 -81.7722 264° West 354 407 36,000  Climbing Atlanta Center
06:44AM 35.2553 -81.9022 266° West 369 425 36,000  Level Atlanta Center
06:45AM 35.2450 -82.0400 265° West 396 456 36,000  Level Atlanta Center
06:46AM 35.2347 -82.1775 265° West 410 472 36,000  Level Atlanta Center
06:47AM 35.2203 -82.3381 264° West 431 496 36,000  Level Atlanta Center
06:48AM 35.2097 -82.4906 265° West 436 502 36,000  Level Atlanta Center
06:49AM 35.1989 -82.6181 264° West 442 509 36,000  Level Atlanta Center
06:50AM 35.1858 -82.7706 264° West 442 509 36,000  Level Atlanta Center
06:51AM 35.1747 -82.9106 264° West 447 514 36,000  Level Atlanta Center
06:52AM 35.1614 -83.0556 264° West 441 507 36,000  Level Atlanta Center
06:53AM 35.1500 -83.2031 265° West 447 514 36,000  Level Atlanta Center
06:54AM 35.1364 -83.3481 263° West 440 506 36,000  Level Atlanta Center
06:55AM 35.1225 -83.4903 263° West 440 506 36,000  Level Atlanta Center
06:56AM 35.1083 -83.6375 263° West 435 501 36,000  Level Atlanta Center
06:57AM 35.0942 -83.7825 263° West 435 501 36,000  Level Atlanta Center
06:58AM 35.0819 -83.9322 264° West 435 501 36,000  Level Atlanta Center
06:59AM 35.0672 -84.0794 263° West 445 512 36,000  Level Atlanta Center
07:00AM 35.0525 -84.2317 263° West 445 512 36,000  Level Atlanta Center
07:01AM 35.0375 -84.3814 263° West 445 512 36,000  Level Atlanta Center
07:02AM 35.0247 -84.5283 264° West 445 512 36,000  Level Atlanta Center
07:03AM 35.0094 -84.6803 263° West 445 512 36,000  Level Atlanta Center
07:04AM 34.9939 -84.8297 263° West 445 512 36,000  Level Atlanta Center
07:05AM 34.9761 -84.9919 262° West 445 512 36,000  Level Atlanta Center
07:06AM 34.9581 -85.1411 262° West 445 512 36,000  Level Atlanta Center
07:07AM 34.8858 -85.2617 234° Southwest 436 502 36,000  Level Atlanta Center
07:08AM 34.8014 -85.3744 228° Southwest 436 502 36,000  Level Atlanta Center
07:09AM 34.7331 -85.4972 236° Southwest 446 513 36,000  Level Atlanta Center
07:10AM 34.6753 -85.6275 242° Southwest 446 513 36,000  Level Atlanta Center
07:11AM 34.6172 -85.7575 242° Southwest 441 507 36,000  Level Atlanta Center
07:12AM 34.5694 -85.8703 243° Southwest 433 498 36,000  Level Atlanta Center
07:13AM 34.5092 -86.0000 241° Southwest 433 498 36,000  Level Atlanta Center
07:14AM 34.4506 -86.1294 241° Southwest 433 498 36,000  Level Atlanta Center
07:15AM 34.3900 -86.2589 240° Southwest 433 498 36,000  Level Atlanta Center
07:16AM 34.3333 -86.3858 242° Southwest 428 493 36,000  Level Atlanta Center
07:17AM 34.2744 -86.5125 241° Southwest 428 493 36,000  Level Atlanta Center
07:18AM 34.2156 -86.6389 241° Southwest 428 493 36,000  Level Atlanta Center
07:19AM 34.1564 -86.7650 240° Southwest 428 493 36,000  Level Atlanta Center
07:20AM 34.0972 -86.8956 241° Southwest 433 498 36,000  Level Memphis Center
07:21AM 34.0442 -87.0156 242° Southwest 452 520 36,000  Level Memphis Center
07:22AM 33.9789 -87.1508 240° Southwest 446 513 36,000  Level Memphis Center
07:23AM 33.9233 -87.2656 240° Southwest 447 514 36,000  Level Memphis Center
07:24AM 33.8658 -87.3903 241° Southwest 437 503 36,000  Level Memphis Center
07:25AM 33.8022 -87.5225 240° Southwest 446 513 36,000  Level Memphis Center
07:26AM 33.7344 -87.6644 240° Southwest 451 519 36,000  Level Memphis Center
07:27AM 33.6744 -87.7911 240° Southwest 451 519 36,000  Level Memphis Center
07:28AM 33.6144 -87.9203 241° Southwest 451 519 36,000  Level Memphis Center
07:29AM 33.5522 -88.0514 240° Southwest 451 519 36,000  Level Memphis Center
07:30AM 33.4878 -88.1803 239° Southwest 451 519 36,000  Level Memphis Center
07:31AM 33.4375 -88.2961 243° Southwest 451 519 36,000  Level Memphis Center
07:32AM 33.3769 -88.4244 241° Southwest 451 519 36,000  Level Memphis Center
07:33AM 33.3100 -88.5575 239° Southwest 457 526 36,000  Level Memphis Center
07:34AM 33.2472 -88.6906 241° Southwest 457 526 36,000  Level Memphis Center
07:35AM 33.1822 -88.8208 239° Southwest 457 526 36,000  Level Memphis Center
07:36AM 33.1169 -88.9533 240° Southwest 462 532 36,000  Level Memphis Center
07:37AM 33.0494 -89.0883 239° Southwest 467 537 36,000  Level Memphis Center
07:38AM 32.9839 -89.2206 239° Southwest 467 537 36,000  Level Memphis Center
07:39AM 32.9164 -89.3550 239° Southwest 467 537 36,000  Level Memphis Center
07:40AM 32.8506 -89.4867 239° Southwest 467 537 36,000  Level Memphis Center
07:41AM 32.7825 -89.6158 238° Southwest 467 537 36,000  Level Memphis Center
07:42AM 32.7142 -89.7500 239° Southwest 467 537 36,000  Level Memphis Center
07:43AM 32.6500 -89.8811 240° Southwest 467 537 36,000  Level Memphis Center
07:44AM 32.5858 -90.0097 239° Southwest 467 537 36,000  Level Memphis Center
07:45AM 32.5214 -90.1381 239° Southwest 467 537 36,000  Level Memphis Center
07:46AM 32.4569 -90.2636 239° Southwest 462 532 36,000  Level Memphis Center
07:47AM 32.3881 -90.3942 238° Southwest 462 532 36,000  Level Memphis Center
07:48AM 32.3233 -90.5172 238° Southwest 457 526 36,000  Level Memphis Center
07:49AM 32.2542 -90.6497 238° Southwest 462 532 36,000  Level Memphis Center
07:51AM 32.1611 -90.8325 239° Southwest 455 524 36,000  Level Houston Center
07:52AM 32.0936 -90.9597 238° Southwest 456 525 36,000  Level Houston Center
07:53AM 32.0264 -91.0872 238° Southwest 459 528 36,000  Level Houston Center
07:54AM 31.9553 -91.2131 236° Southwest 460 529 36,000  Level Houston Center
07:55AM 31.8883 -91.3386 238° Southwest 454 522 36,000  Level Houston Center
07:56AM 31.8203 -91.4650 238° Southwest 456 525 36,000  Level Houston Center
07:57AM 31.7522 -91.5889 237° Southwest 452 520 36,000  Level Houston Center
07:58AM 31.6850 -91.7142 238° Southwest 452 520 36,000  Level Houston Center
07:59AM 31.6175 -91.8394 238° Southwest 452 520 36,000  Level Houston Center
08:00AM 31.5378 -91.9906 238° Southwest 452 520 36,000  Level Houston Center
08:01AM 31.4667 -92.1161 236° Southwest 450 518 36,000  Level Houston Center
08:02AM 31.3989 -92.2417 238° Southwest 455 524 36,000  Level Houston Center
08:03AM 31.3308 -92.3633 237° Southwest 449 517 36,000  Level Houston Center
08:04AM 31.2628 -92.4917 238° Southwest 460 529 36,000  Level Houston Center
08:05AM 31.1931 -92.6144 236° Southwest 458 527 36,000  Level Houston Center
08:06AM 31.1228 -92.7394 237° Southwest 459 528 36,000  Level Houston Center
08:07AM 31.0539 -92.8631 237° Southwest 456 525 36,000  Level Houston Center
08:08AM 30.9833 -92.9878 237° Southwest 460 529 36,000  Level Houston Center
08:09AM 30.9133 -93.1114 237° Southwest 461 531 36,000 -180 Level Houston Center
08:10AM 30.8294 -93.2611 237° Southwest 462 532 35,700 -1,080 Descending Houston Center
08:11AM 30.7586 -93.3867 237° Southwest 466 536 33,900 -2,040 Descending Houston Center
08:12AM 30.6889 -93.5094 237° Southwest 462 532 31,600 -2,640 Descending Houston Center
08:13AM 30.6186 -93.6333 237° Southwest 466 536 28,600 -2,940 Descending Houston Center
08:14AM 30.5469 -93.7594 237° Southwest 474 545 25,600 -3,180 Descending Houston Center
08:15AM 30.4603 -93.9092 236° Southwest 471 542 22,200 -2,940 Descending Houston Center
08:16AM 30.3908 -94.0289 236° Southwest 456 525 19,600 -2,460 Descending Houston Center
08:17AM 30.3264 -94.1414 236° Southwest 427 491 17,200 -2,460 Descending Houston Center
08:18AM 30.2769 -94.2258 236° Southwest 392 451 15,200 -2,400 Descending Houston Center
08:19AM 30.2086 -94.3442 236° Southwest 376 433 12,300 -1,980 Descending Houston Center
08:20AM 30.1681 -94.4467 245° Southwest 352 405 10,800 -1,380 Descending Houston Center
08:21AM 30.1319 -94.5475 248° West 330 380 9,500 -1,260 Descending Houston Center
08:22AM 30.0994 -94.6317 246° West 294 338 8,300 -780 Descending Houston Center
08:23AM 30.0689 -94.7136 247° West 280 322 8,000 -180 Descending Houston Center
08:24AM 30.0339 -94.8075 247° West 269 310 8,000  Level Houston Center
08:26AM 30.0039 -94.8883 247° West 275 316 8,000 -60 Level Houston Center
08:27AM 29.9958 -94.9756 264° West 278 320 7,900 -840 Descending Houston Center
08:28AM 29.9906 -95.0611 266° West 269 310 6,300 -1,860 Descending Houston Center
08:29AM 29.9942 -95.1450 273° West 266 306 4,200 -1,920 Descending Houston Center
08:30AM 29.9944 -95.2164 270° West 243 280 2,400 -1,500 Descending Houston Center
08:31AM 29.9933 -95.2689 269° West 199 229 1,100 -1,020 Descending Houston Center
08:32AM 29.9933 -95.3142 270° West 166 191 400 -720 Descending Houston Center